createdAt,value
2023-01-18T00:00:49.704Z,-1.23
2023-01-18T00:01:49.704Z,-1.15
2023-01-18T00:02:49.650Z,-1.28
2023-01-18T00:03:49.713Z,-1.28
2023-01-18T00:04:50.732Z,-1.26
2023-01-18T00:05:49.627Z,-1.35
2023-01-18T00:06:52.622Z,-1.38
2023-01-18T00:07:49.605Z,-1.49
2023-01-18T00:08:49.629Z,-1.39
2023-01-18T00:09:49.595Z,-1.43
2023-01-18T00:10:49.567Z,-1.38
2023-01-18T00:11:49.958Z,-1.43
2023-01-18T00:12:49.549Z,-1.44
2023-01-18T00:13:49.538Z,-1.39
2023-01-18T00:14:49.537Z,-1.46
2023-01-18T00:15:49.534Z,-1.49
2023-01-18T00:16:49.517Z,-1.47
2023-01-18T00:17:49.503Z,-1.53
2023-01-18T00:18:49.473Z,-1.57
2023-01-18T00:19:49.478Z,-1.57
2023-01-18T00:20:49.489Z,-1.61
2023-01-18T00:21:49.474Z,-1.61
2023-01-18T00:22:49.432Z,-1.51
2023-01-18T00:23:49.425Z,-1.56
2023-01-18T00:24:49.412Z,-1.56
2023-01-18T00:25:50.101Z,-1.64
2023-01-18T00:26:49.410Z,-1.57
2023-01-18T00:27:49.453Z,-1.59
2023-01-18T00:28:49.367Z,-1.61
2023-01-18T00:29:49.361Z,-1.54
2023-01-18T00:30:49.345Z,-1.56
2023-01-18T00:31:49.380Z,-1.70
2023-01-18T00:32:49.323Z,-1.65
2023-01-18T00:33:49.318Z,-1.61
2023-01-18T00:34:50.594Z,-1.67
2023-01-18T00:35:49.296Z,-1.74
2023-01-18T00:36:49.284Z,-1.68
2023-01-18T00:37:49.303Z,-1.64
2023-01-18T00:38:49.258Z,-1.67
2023-01-18T00:39:50.103Z,-1.61
2023-01-18T00:40:49.251Z,-1.64
2023-01-18T00:41:49.225Z,-1.67
2023-01-18T00:42:49.245Z,-1.74
2023-01-18T00:43:49.245Z,-1.72
2023-01-18T00:44:49.226Z,-1.67
2023-01-18T00:45:49.267Z,-1.62
2023-01-18T00:46:49.171Z,-1.65
2023-01-18T00:47:49.163Z,-1.59
2023-01-18T00:48:50.221Z,-1.64
2023-01-18T00:49:49.153Z,-1.67
2023-01-18T00:50:51.124Z,-1.65
2023-01-18T00:51:49.111Z,-1.65
2023-01-18T00:52:49.113Z,-1.70
2023-01-18T00:53:49.116Z,-1.61
2023-01-18T00:54:49.087Z,-1.65
2023-01-18T00:55:49.135Z,-1.62
2023-01-18T00:56:49.063Z,-1.74
2023-01-18T00:57:49.054Z,-1.74
2023-01-18T00:58:49.076Z,-1.78
2023-01-18T00:59:49.045Z,-1.75
2023-01-18T01:00:49.180Z,-1.80
2023-01-18T01:01:51.751Z,-1.80
2023-01-18T01:02:49.096Z,-1.80
2023-01-18T01:03:48.988Z,-1.80
2023-01-18T01:04:48.992Z,-1.83
2023-01-18T01:05:50.020Z,-1.80
2023-01-18T01:06:48.953Z,-1.85
2023-01-18T01:07:48.947Z,-1.88
2023-01-18T01:08:48.934Z,-1.89
2023-01-18T01:09:49.116Z,-1.93
2023-01-18T01:10:48.909Z,-2.01
2023-01-18T01:11:48.900Z,-2.01
2023-01-18T01:12:48.892Z,-2.03
2023-01-18T01:13:48.877Z,-2.08
2023-01-18T01:14:48.926Z,-2.04
2023-01-18T01:15:48.889Z,-2.07
2023-01-18T01:16:48.918Z,-2.11
2023-01-18T01:17:48.834Z,-2.06
2023-01-18T01:18:48.820Z,-2.11
2023-01-18T01:19:48.856Z,-2.08
2023-01-18T01:20:49.589Z,-2.03
2023-01-18T01:21:51.589Z,-2.08
2023-01-18T01:22:48.779Z,-2.08
2023-01-18T01:23:48.765Z,-2.03
2023-01-18T01:24:48.772Z,-2.06
2023-01-18T01:25:48.775Z,-1.96
2023-01-18T01:26:48.733Z,-1.93
2023-01-18T01:27:48.732Z,-1.89
2023-01-18T01:28:48.707Z,-2.00
2023-01-18T01:29:48.707Z,-1.93
2023-01-18T01:30:48.745Z,-2.04
2023-01-18T01:31:48.719Z,-2.08
2023-01-18T01:32:48.669Z,-2.13
2023-01-18T01:33:48.664Z,-2.04
2023-01-18T01:34:48.648Z,-2.06
2023-01-18T01:35:48.635Z,-2.16
2023-01-18T01:36:48.651Z,-2.19
2023-01-18T01:37:48.618Z,-2.11
2023-01-18T01:38:48.604Z,-2.11
2023-01-18T01:39:48.593Z,-2.14
2023-01-18T01:40:48.581Z,-2.14
2023-01-18T01:41:48.616Z,-2.28
2023-01-18T01:42:48.583Z,-2.24
2023-01-18T01:43:48.562Z,-2.25
2023-01-18T01:44:48.538Z,-2.32
2023-01-18T01:45:48.563Z,-2.33
2023-01-18T01:46:48.536Z,-2.25
2023-01-18T01:47:48.521Z,-2.29
2023-01-18T01:48:48.504Z,-2.21
2023-01-18T01:49:48.483Z,-2.24
2023-01-18T01:50:48.460Z,-2.14
2023-01-18T01:51:48.484Z,-2.19
2023-01-18T01:52:49.091Z,-2.18
2023-01-18T01:53:48.440Z,-2.18
2023-01-18T01:55:09.430Z,-2.11
2023-01-18T01:55:48.410Z,-2.11
2023-01-18T01:56:48.408Z,-2.19
2023-01-18T01:57:48.420Z,-2.13
2023-01-18T01:58:48.398Z,-2.08
2023-01-18T01:59:48.368Z,-2.14
2023-01-18T02:00:48.517Z,-2.14
2023-01-18T02:01:48.486Z,-2.19
2023-01-18T02:02:48.451Z,-2.19
2023-01-18T02:03:48.341Z,-2.14
2023-01-18T02:04:48.332Z,-2.24
2023-01-18T02:05:48.301Z,-2.16
2023-01-18T02:06:48.295Z,-2.16
2023-01-18T02:07:48.340Z,-2.14
2023-01-18T02:08:48.281Z,-2.18
2023-01-18T02:09:48.250Z,-2.18
2023-01-18T02:10:48.255Z,-2.13
2023-01-18T02:11:48.238Z,-2.19
2023-01-18T02:12:48.245Z,-2.21
2023-01-18T02:13:48.218Z,-2.25
2023-01-18T02:14:48.206Z,-2.21
2023-01-18T02:15:48.199Z,-2.24
2023-01-18T02:16:49.165Z,-2.28
2023-01-18T02:17:48.211Z,-2.29
2023-01-18T02:18:48.176Z,-2.25
2023-01-18T02:19:48.177Z,-2.28
2023-01-18T02:20:48.161Z,-2.32
2023-01-18T02:21:48.250Z,-2.29
2023-01-18T02:22:48.115Z,-2.32
2023-01-18T02:23:48.261Z,-2.25
2023-01-18T02:24:48.267Z,-2.37
2023-01-18T02:25:48.089Z,-2.33
2023-01-18T02:26:48.285Z,-2.29
2023-01-18T02:27:48.070Z,-2.32
2023-01-18T02:28:48.586Z,-2.25
2023-01-18T02:29:48.036Z,-2.25
2023-01-18T02:30:48.069Z,-2.18
2023-01-18T02:31:48.604Z,-2.14
2023-01-18T02:32:48.113Z,-2.16
2023-01-18T02:33:47.984Z,-2.14
2023-01-18T02:34:48.130Z,-2.22
2023-01-18T02:35:48.133Z,-2.25
2023-01-18T02:36:50.807Z,-2.26
2023-01-18T02:37:47.951Z,-2.32
2023-01-18T02:38:47.959Z,-2.29
2023-01-18T02:39:48.777Z,-2.28
2023-01-18T02:40:47.936Z,-2.32
2023-01-18T02:41:53.142Z,-2.25
2023-01-18T02:42:47.918Z,-2.18
2023-01-18T02:43:47.877Z,-2.14
2023-01-18T02:44:47.875Z,-2.07
2023-01-18T02:45:48.055Z,-2.11
2023-01-18T02:46:47.848Z,-2.11
2023-01-18T02:47:48.091Z,-2.19
2023-01-18T02:48:47.853Z,-2.13
2023-01-18T02:49:48.023Z,-2.18
2023-01-18T02:50:48.584Z,-2.08
2023-01-18T02:51:48.671Z,-2.04
2023-01-18T02:52:47.811Z,-2.06
2023-01-18T02:53:47.910Z,-2.06
2023-01-18T02:54:47.762Z,-2.14
2023-01-18T02:55:47.754Z,-2.07
2023-01-18T02:56:47.741Z,-2.10
2023-01-18T02:57:47.739Z,-2.21
2023-01-18T02:58:47.892Z,-2.29
2023-01-18T02:59:47.724Z,-2.37
2023-01-18T03:00:47.946Z,-2.43
2023-01-18T03:01:48.854Z,-2.48
2023-01-18T03:02:47.786Z,-2.43
2023-01-18T03:03:47.705Z,-2.46
2023-01-18T03:04:47.670Z,-2.48
2023-01-18T03:05:47.639Z,-2.41
2023-01-18T03:06:47.633Z,-2.29
2023-01-18T03:07:48.601Z,-2.43
2023-01-18T03:08:47.613Z,-2.37
2023-01-18T03:09:47.620Z,-2.41
2023-01-18T03:10:47.607Z,-2.48
2023-01-18T03:11:47.574Z,-2.51
2023-01-18T03:12:47.555Z,-2.51
2023-01-18T03:13:48.090Z,-2.50
2023-01-18T03:14:47.537Z,-2.41
2023-01-18T03:15:47.662Z,-2.46
2023-01-18T03:16:47.650Z,-2.28
2023-01-18T03:17:47.515Z,-2.29
2023-01-18T03:18:47.608Z,-2.29
2023-01-18T03:19:47.491Z,-2.29
2023-01-18T03:20:47.700Z,-2.32
2023-01-18T03:21:47.599Z,-2.25
2023-01-18T03:22:47.469Z,-2.24
2023-01-18T03:23:47.463Z,-2.22
2023-01-18T03:24:47.651Z,-2.18
2023-01-18T03:25:47.444Z,-2.18
2023-01-18T03:26:48.291Z,-2.18
2023-01-18T03:27:47.464Z,-2.25
2023-01-18T03:28:47.385Z,-2.24
2023-01-18T03:29:47.379Z,-2.32
2023-01-18T03:30:47.407Z,-2.33
2023-01-18T03:31:47.494Z,-2.46
2023-01-18T03:32:47.371Z,-2.47
2023-01-18T03:33:47.505Z,-2.46
2023-01-18T03:34:47.324Z,-2.43
2023-01-18T03:35:47.313Z,-2.43
2023-01-18T03:36:47.339Z,-2.35
2023-01-18T03:37:47.330Z,-2.33
2023-01-18T03:38:47.293Z,-2.46
2023-01-18T03:39:48.172Z,-2.46
2023-01-18T03:40:47.272Z,-2.46
2023-01-18T03:41:47.353Z,-2.44
2023-01-18T03:42:47.255Z,-2.29
2023-01-18T03:43:47.385Z,-2.44
2023-01-18T03:44:47.226Z,-2.46
2023-01-18T03:45:47.380Z,-2.41
2023-01-18T03:46:47.238Z,-2.37
2023-01-18T03:47:47.191Z,-2.38
2023-01-18T03:48:47.200Z,-2.43
2023-01-18T03:49:47.164Z,-2.43
2023-01-18T03:50:47.149Z,-2.44
2023-01-18T03:51:47.232Z,-2.44
2023-01-18T03:52:47.134Z,-2.55
2023-01-18T03:53:48.257Z,-2.53
2023-01-18T03:54:47.131Z,-2.56
2023-01-18T03:55:47.114Z,-2.55
2023-01-18T03:56:47.110Z,-2.62
2023-01-18T03:57:47.081Z,-2.53
2023-01-18T03:58:47.068Z,-2.61
2023-01-18T03:59:47.084Z,-2.64
2023-01-18T04:00:47.103Z,-2.65
2023-01-18T04:01:47.077Z,-2.62
2023-01-18T04:02:49.628Z,-2.68
2023-01-18T04:03:47.137Z,-2.56
2023-01-18T04:04:47.004Z,-2.51
2023-01-18T04:05:47.100Z,-2.47
2023-01-18T04:06:46.998Z,-2.48
2023-01-18T04:07:47.112Z,-2.41
2023-01-18T04:08:47.132Z,-2.46
2023-01-18T04:09:46.965Z,-2.41
2023-01-18T04:10:46.984Z,-2.29
2023-01-18T04:11:46.947Z,-2.25
2023-01-18T04:12:46.954Z,-2.32
2023-01-18T04:13:46.918Z,-2.25
2023-01-18T04:14:47.011Z,-2.32
2023-01-18T04:15:46.921Z,-2.25
2023-01-18T04:16:46.995Z,-2.32
2023-01-18T04:17:46.857Z,-2.32
2023-01-18T04:18:46.868Z,-2.33
2023-01-18T04:19:46.840Z,-2.26
2023-01-18T04:20:47.056Z,-2.33
2023-01-18T04:21:47.577Z,-2.37
2023-01-18T04:22:46.806Z,-2.46
2023-01-18T04:23:46.810Z,-2.44
2023-01-18T04:24:46.802Z,-2.44
2023-01-18T04:25:46.805Z,-2.47
2023-01-18T04:26:46.783Z,-2.38
2023-01-18T04:27:46.861Z,-2.35
2023-01-18T04:28:46.727Z,-2.35
2023-01-18T04:29:46.768Z,-2.28
2023-01-18T04:30:46.753Z,-2.33
2023-01-18T04:31:46.866Z,-2.29
2023-01-18T04:32:46.707Z,-2.46
2023-01-18T04:33:46.894Z,-2.41
2023-01-18T04:34:46.718Z,-2.46
2023-01-18T04:35:46.673Z,-2.47
2023-01-18T04:36:46.745Z,-2.47
2023-01-18T04:37:46.647Z,-2.41
2023-01-18T04:38:46.716Z,-2.41
2023-01-18T04:39:46.649Z,-2.41
2023-01-18T04:40:46.750Z,-2.48
2023-01-18T04:41:46.629Z,-2.46
2023-01-18T04:42:46.746Z,-2.38
2023-01-18T04:43:46.609Z,-2.41
2023-01-18T04:44:49.618Z,-2.43
2023-01-18T04:45:46.561Z,-2.41
2023-01-18T04:46:46.831Z,-2.28
2023-01-18T04:47:46.561Z,-2.38
2023-01-18T04:48:46.539Z,-2.44
2023-01-18T04:49:46.522Z,-2.44
2023-01-18T04:50:46.613Z,-2.40
2023-01-18T04:51:46.501Z,-2.41
2023-01-18T04:52:46.662Z,-2.43
2023-01-18T04:53:46.496Z,-2.48
2023-01-18T04:54:47.232Z,-2.48
2023-01-18T04:55:46.625Z,-2.47
2023-01-18T04:56:46.446Z,-2.41
2023-01-18T04:57:47.719Z,-2.41
2023-01-18T04:58:47.079Z,-2.29
2023-01-18T04:59:46.449Z,-2.33
2023-01-18T05:00:49.174Z,-2.37
2023-01-18T05:01:46.535Z,-2.28
2023-01-18T05:02:46.376Z,-2.32
2023-01-18T05:03:46.524Z,-2.28
2023-01-18T05:04:46.388Z,-2.28
2023-01-18T05:05:46.483Z,-2.28
2023-01-18T05:06:46.349Z,-2.21
2023-01-18T05:07:46.495Z,-2.24
2023-01-18T05:08:46.333Z,-2.16
2023-01-18T05:09:46.511Z,-2.26
2023-01-18T05:10:46.319Z,-2.29
2023-01-18T05:11:46.314Z,-2.28
2023-01-18T05:12:46.285Z,-2.32
2023-01-18T05:13:46.332Z,-2.26
2023-01-18T05:14:46.282Z,-2.33
2023-01-18T05:15:46.263Z,-2.33
2023-01-18T05:16:46.233Z,-2.28
2023-01-18T05:17:47.181Z,-2.24
2023-01-18T05:18:46.213Z,-2.22
2023-01-18T05:19:46.457Z,-2.32
2023-01-18T05:20:46.189Z,-2.40
2023-01-18T05:21:46.392Z,-2.44
2023-01-18T05:22:46.177Z,-2.46
2023-01-18T05:23:46.197Z,-2.43
2023-01-18T05:24:48.091Z,-2.50
2023-01-18T05:25:46.267Z,-2.43
2023-01-18T05:26:49.062Z,-2.43
2023-01-18T05:27:47.240Z,-2.44
2023-01-18T05:28:46.109Z,-2.40
2023-01-18T05:29:49.105Z,-2.46
2023-01-18T05:30:46.094Z,-2.41
2023-01-18T05:31:46.354Z,-2.28
2023-01-18T05:32:46.063Z,-2.43
2023-01-18T05:33:46.277Z,-2.47
2023-01-18T05:34:48.575Z,-2.47
2023-01-18T05:35:46.039Z,-2.50
2023-01-18T05:36:46.014Z,-2.44
2023-01-18T05:37:46.144Z,-2.44
2023-01-18T05:38:45.989Z,-2.61
2023-01-18T05:39:46.099Z,-2.51
2023-01-18T05:40:46.088Z,-2.55
2023-01-18T05:41:46.113Z,-2.51
2023-01-18T05:42:45.976Z,-2.61
2023-01-18T05:43:47.149Z,-2.55
2023-01-18T05:44:45.927Z,-2.53
2023-01-18T05:45:46.176Z,-2.46
2023-01-18T05:46:45.911Z,-2.50
2023-01-18T05:47:48.639Z,-2.41
2023-01-18T05:48:46.000Z,-2.43
2023-01-18T05:49:45.883Z,-2.46
2023-01-18T05:50:46.987Z,-2.50
2023-01-18T05:51:45.866Z,-2.43
2023-01-18T05:52:46.039Z,-2.48
2023-01-18T05:53:46.557Z,-2.46
2023-01-18T05:54:45.994Z,-2.51
2023-01-18T05:55:48.564Z,-2.51
2023-01-18T05:56:46.007Z,-2.46
2023-01-18T05:57:47.654Z,-2.55
2023-01-18T05:58:46.273Z,-2.58
2023-01-18T05:59:46.563Z,-2.55
2023-01-18T06:00:45.912Z,-2.62
2023-01-18T06:01:46.610Z,-2.66
2023-01-18T06:02:45.839Z,-2.64
2023-01-18T06:03:46.126Z,-2.64
2023-01-18T06:04:46.107Z,-2.66
2023-01-18T06:05:48.574Z,-2.72
2023-01-18T06:06:45.866Z,-2.71
2023-01-18T06:07:45.689Z,-2.71
2023-01-18T06:08:45.681Z,-2.68
2023-01-18T06:09:45.715Z,-2.68
2023-01-18T06:10:45.694Z,-2.59
2023-01-18T06:11:45.656Z,-2.62
2023-01-18T06:12:45.630Z,-2.64
2023-01-18T06:13:45.629Z,-2.62
2023-01-18T06:14:45.626Z,-2.66
2023-01-18T06:15:46.252Z,-2.61
2023-01-18T06:16:45.646Z,-2.55
2023-01-18T06:17:45.591Z,-2.58
2023-01-18T06:18:45.569Z,-2.61
2023-01-18T06:19:45.580Z,-2.59
2023-01-18T06:20:45.588Z,-2.68
2023-01-18T06:21:45.625Z,-2.65
2023-01-18T06:22:45.571Z,-2.68
2023-01-18T06:23:46.599Z,-2.66
2023-01-18T06:24:45.500Z,-2.76
2023-01-18T06:25:45.655Z,-2.72
2023-01-18T06:26:45.508Z,-2.82
2023-01-18T06:27:45.600Z,-2.79
2023-01-18T06:28:45.483Z,-2.76
2023-01-18T06:29:45.611Z,-2.87
2023-01-18T06:30:45.470Z,-2.79
2023-01-18T06:31:45.678Z,-2.84
2023-01-18T06:32:45.437Z,-2.79
2023-01-18T06:33:45.462Z,-2.86
2023-01-18T06:34:45.401Z,-2.82
2023-01-18T06:35:45.409Z,-2.80
2023-01-18T06:36:46.488Z,-2.86
2023-01-18T06:37:45.379Z,-2.86
2023-01-18T06:38:45.515Z,-2.80
2023-01-18T06:39:45.359Z,-2.82
2023-01-18T06:40:45.488Z,-2.82
2023-01-18T06:41:45.493Z,-2.84
2023-01-18T06:42:45.334Z,-2.82
2023-01-18T06:43:45.524Z,-2.66
2023-01-18T06:44:45.292Z,-2.69
2023-01-18T06:45:45.380Z,-2.61
2023-01-18T06:46:45.283Z,-2.76
2023-01-18T06:47:45.387Z,-2.66
2023-01-18T06:48:45.272Z,-2.66
2023-01-18T06:49:46.158Z,-2.66
2023-01-18T06:50:46.051Z,-2.74
2023-01-18T06:51:45.375Z,-2.76
2023-01-18T06:52:45.227Z,-2.76
2023-01-18T06:53:46.208Z,-2.76
2023-01-18T06:54:45.184Z,-2.86
2023-01-18T06:55:48.243Z,-2.76
2023-01-18T06:56:45.185Z,-2.82
2023-01-18T06:57:45.185Z,-2.83
2023-01-18T06:58:45.179Z,-2.77
2023-01-18T06:59:45.261Z,-2.80
2023-01-18T07:00:45.239Z,-2.82
2023-01-18T07:01:45.293Z,-2.65
2023-01-18T07:02:45.108Z,-2.71
2023-01-18T07:03:48.114Z,-2.74
2023-01-18T07:04:45.084Z,-2.66
2023-01-18T07:05:46.162Z,-2.62
2023-01-18T07:06:45.061Z,-2.56
2023-01-18T07:07:45.275Z,-2.59
2023-01-18T07:08:45.064Z,-2.58
2023-01-18T07:09:45.040Z,-2.61
2023-01-18T07:10:45.120Z,-2.64
2023-01-18T07:11:45.001Z,-2.62
2023-01-18T07:12:47.750Z,-2.61
2023-01-18T07:13:45.006Z,-2.66
2023-01-18T07:14:45.091Z,-2.71
2023-01-18T07:15:45.101Z,-2.61
2023-01-18T07:16:45.013Z,-2.74
2023-01-18T07:17:45.745Z,-2.68
2023-01-18T07:18:44.926Z,-2.65
2023-01-18T07:19:45.137Z,-2.66
2023-01-18T07:20:44.925Z,-2.68
2023-01-18T07:21:44.939Z,-2.64
2023-01-18T07:22:44.918Z,-2.58
2023-01-18T07:23:44.970Z,-2.51
2023-01-18T07:24:44.866Z,-2.40
2023-01-18T07:25:47.837Z,-2.29
2023-01-18T07:26:45.089Z,-2.38
2023-01-18T07:27:44.981Z,-2.38
2023-01-18T07:28:44.825Z,-2.33
2023-01-18T07:29:44.809Z,-2.33
2023-01-18T07:30:45.545Z,-2.29
2023-01-18T07:31:44.927Z,-2.28
2023-01-18T07:32:44.781Z,-2.29
2023-01-18T07:33:44.817Z,-2.25
2023-01-18T07:34:44.781Z,-2.25
2023-01-18T07:35:47.696Z,-2.21
2023-01-18T07:36:44.745Z,-2.24
2023-01-18T07:37:45.102Z,-2.25
2023-01-18T07:38:44.718Z,-2.29
2023-01-18T07:39:44.887Z,-2.25
2023-01-18T07:40:45.554Z,-2.28
2023-01-18T07:41:44.946Z,-2.14
2023-01-18T07:42:44.667Z,-2.11
2023-01-18T07:43:45.101Z,-2.14
2023-01-18T07:44:44.646Z,-2.11
2023-01-18T07:45:45.715Z,-2.10
2023-01-18T07:46:45.554Z,-2.07
2023-01-18T07:47:44.770Z,-2.19
2023-01-18T07:48:47.555Z,-2.08
2023-01-18T07:49:44.614Z,-2.08
2023-01-18T07:50:47.552Z,-2.18
2023-01-18T07:51:44.741Z,-2.08
2023-01-18T07:52:45.542Z,-2.13
2023-01-18T07:53:45.822Z,-2.13
2023-01-18T07:54:44.548Z,-2.18
2023-01-18T07:55:44.801Z,-2.19
2023-01-18T07:56:44.522Z,-2.11
2023-01-18T07:57:44.577Z,-2.08
2023-01-18T07:58:44.501Z,-2.11
2023-01-18T07:59:44.666Z,-2.13
2023-01-18T08:00:44.484Z,-2.06
2023-01-18T08:01:52.224Z,-2.07
2023-01-18T08:02:44.493Z,-2.06
2023-01-18T08:03:44.603Z,-2.08
2023-01-18T08:04:44.448Z,-2.08
2023-01-18T08:05:46.733Z,-2.11
2023-01-18T08:06:44.420Z,-2.07
2023-01-18T08:07:44.685Z,-2.07
2023-01-18T08:08:44.399Z,-2.10
2023-01-18T08:09:44.446Z,-2.04
2023-01-18T08:10:51.064Z,-2.01
2023-01-18T08:11:44.459Z,-2.01
2023-01-18T08:12:44.351Z,-1.92
2023-01-18T08:13:44.513Z,-1.96
2023-01-18T08:14:45.707Z,-1.96
2023-01-18T08:15:44.391Z,-1.96
2023-01-18T08:16:47.046Z,-1.90
2023-01-18T08:17:44.497Z,-1.88
2023-01-18T08:18:44.286Z,-1.78
2023-01-18T08:19:47.060Z,-1.85
2023-01-18T08:20:45.044Z,-1.78
2023-01-18T08:21:44.371Z,-1.78
2023-01-18T08:22:44.243Z,-1.75
2023-01-18T08:23:44.333Z,-1.70
2023-01-18T08:24:45.058Z,-1.64
2023-01-18T08:25:44.351Z,-1.67
2023-01-18T08:26:44.226Z,-1.67
2023-01-18T08:27:44.418Z,-1.64
2023-01-18T08:28:44.411Z,-1.68
2023-01-18T08:29:44.177Z,-1.57
2023-01-18T08:30:44.266Z,-1.57
2023-01-18T08:31:45.049Z,-1.64
2023-01-18T08:32:44.144Z,-1.59
2023-01-18T08:33:44.124Z,-1.64
2023-01-18T08:34:44.144Z,-1.57
2023-01-18T08:35:47.050Z,-1.53
2023-01-18T08:36:44.103Z,-1.51
2023-01-18T08:37:44.074Z,-1.47
2023-01-18T08:38:44.273Z,-1.44
2023-01-18T08:39:44.075Z,-1.44
2023-01-18T08:40:44.097Z,-1.44
2023-01-18T08:41:44.099Z,-1.39
2023-01-18T08:42:44.038Z,-1.38
2023-01-18T08:43:46.719Z,-1.43
2023-01-18T08:44:50.540Z,-1.31
2023-01-18T08:45:44.069Z,-1.33
2023-01-18T08:46:44.063Z,-1.28
2023-01-18T08:47:44.080Z,-1.28
2023-01-18T08:48:46.559Z,-1.29
2023-01-18T08:49:44.717Z,-1.26
2023-01-18T08:50:43.939Z,-1.26
2023-01-18T08:51:46.561Z,-1.26
2023-01-18T08:52:43.927Z,-1.17
2023-01-18T08:53:46.610Z,-1.29
2023-01-18T08:54:43.923Z,-1.26
2023-01-18T08:55:43.878Z,-1.20
2023-01-18T08:56:43.933Z,-1.23
2023-01-18T08:57:43.882Z,-1.15
2023-01-18T08:58:44.444Z,-1.18
2023-01-18T08:59:43.841Z,-1.15
2023-01-18T09:00:44.588Z,-1.14
2023-01-18T09:01:44.576Z,-1.10
2023-01-18T09:02:44.109Z,-1.11
2023-01-18T09:03:46.539Z,-1.11
2023-01-18T09:04:43.986Z,-1.11
2023-01-18T09:05:43.781Z,-1.13
2023-01-18T09:06:47.210Z,-1.07
2023-01-18T09:07:43.766Z,-1.13
2023-01-18T09:08:44.831Z,-1.03
2023-01-18T09:09:46.545Z,-0.99
2023-01-18T09:10:43.882Z,-1.02
2023-01-18T09:11:44.539Z,-0.92
2023-01-18T09:12:43.839Z,-0.97
2023-01-18T09:14:00.147Z,-0.95
2023-01-18T09:14:44.667Z,-0.97
2023-01-18T09:15:44.011Z,-0.90
2023-01-18T09:16:43.669Z,-0.93
2023-01-18T09:17:46.734Z,-0.86
2023-01-18T09:18:43.619Z,-0.80
2023-01-18T09:19:43.642Z,-0.85
2023-01-18T09:20:44.179Z,-0.78
2023-01-18T09:21:43.600Z,-0.80
2023-01-18T09:22:43.703Z,-0.78
2023-01-18T09:23:43.582Z,-0.71
2023-01-18T09:24:43.724Z,-0.71
2023-01-18T09:25:43.568Z,-0.74
2023-01-18T09:26:50.686Z,-0.73
2023-01-18T09:27:43.539Z,-0.73
2023-01-18T09:28:43.594Z,-0.60
2023-01-18T09:29:43.538Z,-0.65
2023-01-18T09:30:43.630Z,-0.65
2023-01-18T09:31:43.651Z,-0.62
2023-01-18T09:32:43.566Z,-0.58
2023-01-18T09:33:52.425Z,-0.59
2023-01-18T09:34:44.563Z,-0.58
2023-01-18T09:35:43.598Z,-0.58
2023-01-18T09:36:43.439Z,-0.58
2023-01-18T09:37:43.594Z,-0.53
2023-01-18T09:39:04.465Z,-0.58
2023-01-18T09:39:51.901Z,-0.55
2023-01-18T09:40:44.390Z,-0.52
2023-01-18T09:41:43.420Z,-0.47
2023-01-18T09:42:43.353Z,-0.52
2023-01-18T09:43:43.434Z,-0.50
2023-01-18T09:44:43.370Z,-0.34
2023-01-18T09:45:43.463Z,-0.32
2023-01-18T09:46:43.352Z,-0.41
2023-01-18T09:47:43.490Z,-0.31
2023-01-18T09:48:43.309Z,-0.24
2023-01-18T09:49:43.481Z,-0.24
2023-01-18T09:50:43.447Z,-0.24
2023-01-18T09:51:43.332Z,-0.24
2023-01-18T09:52:43.279Z,-0.20
2023-01-18T09:53:43.294Z,-0.19
2023-01-18T09:54:43.244Z,-0.21
2023-01-18T09:55:43.375Z,-0.20
2023-01-18T09:56:43.241Z,-0.21
2023-01-18T09:57:43.322Z,-0.23
2023-01-18T09:58:43.198Z,-0.19
2023-01-18T09:59:43.199Z,-0.16
2023-01-18T10:00:43.366Z,-0.23
2023-01-18T10:01:43.640Z,-0.13
2023-01-18T10:02:43.220Z,-0.09
2023-01-18T10:03:43.357Z,-0.16
2023-01-18T10:04:43.145Z,-0.17
2023-01-18T10:05:43.157Z,-0.12
2023-01-18T10:06:43.152Z,-0.05
2023-01-18T10:07:43.241Z,-0.01
2023-01-18T10:08:43.092Z,-0.02
2023-01-18T10:09:43.202Z,0.01
2023-01-18T10:10:43.073Z,0.01
2023-01-18T10:11:43.102Z,0.04
2023-01-18T10:12:43.052Z,0.08
2023-01-18T10:13:44.054Z,0.10
2023-01-18T10:14:43.027Z,0.13
2023-01-18T10:15:43.033Z,0.15
2023-01-18T10:16:43.028Z,0.15
2023-01-18T10:17:43.021Z,0.15
2023-01-18T10:18:43.067Z,0.16
2023-01-18T10:19:42.981Z,0.16
2023-01-18T10:20:42.993Z,0.25
2023-01-18T10:21:42.961Z,0.33
2023-01-18T10:22:43.076Z,0.31
2023-01-18T10:23:42.959Z,0.26
2023-01-18T10:24:43.093Z,0.31
2023-01-18T10:25:42.916Z,0.33
2023-01-18T10:26:42.950Z,0.35
2023-01-18T10:27:42.922Z,0.35
2023-01-18T10:28:42.918Z,0.34
2023-01-18T10:29:42.898Z,0.31
2023-01-18T10:30:42.923Z,0.28
2023-01-18T10:31:42.898Z,0.38
2023-01-18T10:32:42.959Z,0.40
2023-01-18T10:33:42.856Z,0.35
2023-01-18T10:34:42.961Z,0.43
2023-01-18T10:35:43.058Z,0.45
2023-01-18T10:36:45.638Z,0.37
2023-01-18T10:37:42.982Z,0.40
2023-01-18T10:38:42.781Z,0.43
2023-01-18T10:39:42.985Z,0.33
2023-01-18T10:40:42.767Z,0.31
2023-01-18T10:41:50.627Z,0.43
2023-01-18T10:42:42.731Z,0.43
2023-01-18T10:43:42.815Z,0.45
2023-01-18T10:44:42.722Z,0.49
2023-01-18T10:45:42.887Z,0.52
2023-01-18T10:46:42.720Z,0.56
2023-01-18T10:47:42.841Z,0.56
2023-01-18T10:48:42.675Z,0.51
2023-01-18T10:49:42.894Z,0.53
2023-01-18T10:50:42.667Z,0.56
2023-01-18T10:51:45.726Z,0.53
2023-01-18T10:52:42.645Z,0.45
2023-01-18T10:53:42.675Z,0.56
2023-01-18T10:54:42.665Z,0.63
2023-01-18T10:55:43.713Z,0.49
2023-01-18T10:56:42.693Z,0.57
2023-01-18T10:57:42.598Z,0.67
2023-01-18T10:58:42.760Z,0.68
2023-01-18T10:59:42.567Z,0.67
2023-01-18T11:00:42.768Z,0.64
2023-01-18T11:01:42.665Z,0.64
2023-01-18T11:02:42.580Z,0.78
2023-01-18T11:03:42.516Z,0.78
2023-01-18T11:04:42.599Z,0.81
2023-01-18T11:05:42.516Z,0.77
2023-01-18T11:06:42.563Z,0.81
2023-01-18T11:07:42.495Z,0.93
2023-01-18T11:08:42.567Z,0.92
2023-01-18T11:09:42.477Z,0.96
2023-01-18T11:10:42.608Z,0.93
2023-01-18T11:11:42.432Z,0.98
2023-01-18T11:12:43.627Z,0.99
2023-01-18T11:13:42.446Z,0.98
2023-01-18T11:14:42.612Z,1.00
2023-01-18T11:15:42.394Z,0.99
2023-01-18T11:16:42.542Z,1.08
2023-01-18T11:17:42.372Z,1.06
2023-01-18T11:18:42.430Z,1.14
2023-01-18T11:19:42.350Z,1.13
2023-01-18T11:20:42.441Z,1.17
2023-01-18T11:21:42.468Z,1.21
2023-01-18T11:22:42.331Z,1.25
2023-01-18T11:23:43.802Z,1.26
2023-01-18T11:24:42.288Z,1.18
2023-01-18T11:25:42.483Z,1.26
2023-01-18T11:26:42.289Z,1.36
2023-01-18T11:27:42.311Z,1.44
2023-01-18T11:28:42.249Z,1.38
2023-01-18T11:29:42.301Z,1.46
2023-01-18T11:30:42.223Z,1.47
2023-01-18T11:31:42.416Z,1.50
2023-01-18T11:32:43.020Z,1.57
2023-01-18T11:33:42.335Z,1.60
2023-01-18T11:34:42.339Z,1.56
2023-01-18T11:35:42.189Z,1.60
2023-01-18T11:36:42.347Z,1.65
2023-01-18T11:37:42.240Z,1.68
2023-01-18T11:38:42.358Z,1.68
2023-01-18T11:39:43.665Z,1.68
2023-01-18T11:40:42.122Z,1.74
2023-01-18T11:41:42.111Z,1.79
2023-01-18T11:42:44.080Z,1.79
2023-01-18T11:43:42.088Z,1.72
2023-01-18T11:44:42.215Z,1.77
2023-01-18T11:45:45.263Z,1.77
2023-01-18T11:46:42.208Z,1.86
2023-01-18T11:47:42.280Z,1.93
2023-01-18T11:48:42.032Z,1.88
2023-01-18T11:49:42.236Z,1.93
2023-01-18T11:50:42.024Z,1.95
2023-01-18T11:51:43.669Z,1.98
2023-01-18T11:52:41.992Z,2.01
2023-01-18T11:53:42.023Z,2.05
2023-01-18T11:54:44.527Z,2.00
2023-01-18T11:55:43.030Z,2.02
2023-01-18T11:56:41.947Z,2.02
2023-01-18T11:57:43.815Z,2.14
2023-01-18T11:58:41.937Z,2.12
2023-01-18T11:59:42.146Z,2.19
2023-01-18T12:00:41.914Z,2.23
2023-01-18T12:01:42.105Z,2.25
2023-01-18T12:02:41.894Z,2.22
2023-01-18T12:03:41.949Z,2.37
2023-01-18T12:04:41.881Z,2.43
2023-01-18T12:05:45.619Z,2.55
2023-01-18T12:06:41.940Z,2.50
2023-01-18T12:07:41.828Z,2.55
2023-01-18T12:08:41.952Z,2.55
2023-01-18T12:09:42.098Z,2.63
2023-01-18T12:10:42.005Z,2.63
2023-01-18T12:11:43.060Z,2.71
2023-01-18T12:12:41.776Z,2.69
2023-01-18T12:13:41.764Z,2.71
2023-01-18T12:14:41.760Z,2.77
2023-01-18T12:15:41.762Z,2.80
2023-01-18T12:16:41.821Z,2.83
2023-01-18T12:17:41.713Z,2.71
2023-01-18T12:18:41.856Z,2.76
2023-01-18T12:19:41.731Z,2.80
2023-01-18T12:20:41.877Z,2.83
2023-01-18T12:21:41.686Z,2.79
2023-01-18T12:22:41.836Z,2.76
2023-01-18T12:23:41.644Z,2.76
2023-01-18T12:24:41.896Z,2.83
2023-01-18T12:25:41.737Z,2.74
2023-01-18T12:26:41.610Z,2.74
2023-01-18T12:27:41.660Z,2.87
2023-01-18T12:28:41.608Z,2.99
2023-01-18T12:29:41.679Z,2.99
2023-01-18T12:30:41.597Z,3.05
2023-01-18T12:31:43.180Z,3.12
2023-01-18T12:32:41.552Z,3.15
2023-01-18T12:33:43.700Z,3.26
2023-01-18T12:34:48.524Z,3.17
2023-01-18T12:35:42.754Z,3.28
2023-01-18T12:36:41.504Z,3.13
2023-01-18T12:37:41.579Z,3.23
2023-01-18T12:38:41.504Z,3.23
2023-01-18T12:39:41.538Z,3.22
2023-01-18T12:40:41.472Z,3.19
2023-01-18T12:41:42.215Z,3.33
2023-01-18T12:42:41.440Z,3.41
2023-01-18T12:43:41.625Z,3.49
2023-01-18T12:44:41.471Z,3.57
2023-01-18T12:45:41.587Z,3.67
2023-01-18T12:46:41.406Z,3.60
2023-01-18T12:47:41.591Z,3.71
2023-01-18T12:48:41.403Z,3.70
2023-01-18T12:49:41.458Z,3.72
2023-01-18T12:50:41.420Z,3.82
2023-01-18T12:51:41.356Z,3.98
2023-01-18T12:52:41.434Z,3.88
2023-01-18T12:53:41.342Z,3.88
2023-01-18T12:54:41.432Z,3.93
2023-01-18T12:55:41.304Z,3.80
2023-01-18T12:56:41.456Z,3.86
2023-01-18T12:57:41.310Z,3.82
2023-01-18T12:58:41.305Z,3.75